sensor_id;sensor_type;location;lat;lon;timestamp;P1;durP1;ratioP1;P2;durP2;ratioP2
71166;SDS011;58864;45.928;20.078;2023-11-21T00:01:05;58.83;;;27.95;;
71166;SDS011;58864;45.928;20.078;2023-11-21T00:03:32;55.17;;;25.93;;
71166;SDS011;58864;45.928;20.078;2023-11-21T00:05:56;52.10;;;25.33;;
71166;SDS011;58864;45.928;20.078;2023-11-21T00:08:21;53.47;;;24.80;;
71166;SDS011;58864;45.928;20.078;2023-11-21T00:10:46;58.23;;;26.83;;
71166;SDS011;58864;45.928;20.078;2023-11-21T00:13:10;72.50;;;33.13;;
71166;SDS011;58864;45.928;20.078;2023-11-21T01:39:15;83.03;;;33.47;;
71166;SDS011;58864;45.928;20.078;2023-11-21T01:41:40;83.75;;;38.60;;
71166;SDS011;58864;45.928;20.078;2023-11-21T01:44:04;86.10;;;40.67;;
71166;SDS011;58864;45.928;20.078;2023-11-21T01:46:31;78.63;;;35.20;;
71166;SDS011;58864;45.928;20.078;2023-11-21T01:48:56;73.60;;;33.53;;
71166;SDS011;58864;45.928;20.078;2023-11-21T01:51:20;74.95;;;33.53;;
71166;SDS011;58864;45.928;20.078;2023-11-21T01:53:45;77.10;;;36.93;;
71166;SDS011;58864;45.928;20.078;2023-11-21T01:56:10;73.95;;;34.50;;
71166;SDS011;58864;45.928;20.078;2023-11-21T01:58:35;67.77;;;33.07;;
71166;SDS011;58864;45.928;20.078;2023-11-21T02:00:59;68.65;;;30.02;;
71166;SDS011;58864;45.928;20.078;2023-11-21T02:03:24;64.63;;;28.47;;
71166;SDS011;58864;45.928;20.078;2023-11-21T02:05:50;67.63;;;29.00;;
71166;SDS011;58864;45.928;20.078;2023-11-21T02:08:14;67.90;;;29.23;;
71166;SDS011;58864;45.928;20.078;2023-11-21T02:10:39;73.73;;;30.53;;
71166;SDS011;58864;45.928;20.078;2023-11-21T02:13:04;77.18;;;30.33;;
71166;SDS011;58864;45.928;20.078;2023-11-21T02:15:30;86.80;;;36.10;;
71166;SDS011;58864;45.928;20.078;2023-11-21T02:17:54;83.10;;;33.80;;
71166;SDS011;58864;45.928;20.078;2023-11-21T02:20:20;76.90;;;34.30;;
71166;SDS011;58864;45.928;20.078;2023-11-21T02:22:50;71.47;;;32.03;;
71166;SDS011;58864;45.928;20.078;2023-11-21T02:25:21;61.42;;;29.17;;
71166;SDS011;58864;45.928;20.078;2023-11-21T02:27:46;63.95;;;29.42;;
71166;SDS011;58864;45.928;20.078;2023-11-21T02:30:12;65.03;;;31.65;;
71166;SDS011;58864;45.928;20.078;2023-11-21T02:32:37;74.70;;;33.73;;
71166;SDS011;58864;45.928;20.078;2023-11-21T02:35:04;73.53;;;31.80;;
71166;SDS011;58864;45.928;20.078;2023-11-21T02:37:32;65.25;;;30.17;;
71166;SDS011;58864;45.928;20.078;2023-11-21T02:39:57;70.33;;;30.00;;
71166;SDS011;58864;45.928;20.078;2023-11-21T02:42:21;65.15;;;30.60;;
71166;SDS011;58864;45.928;20.078;2023-11-21T02:44:45;65.93;;;31.27;;
71166;SDS011;58864;45.928;20.078;2023-11-21T02:47:10;77.80;;;35.73;;
71166;SDS011;58864;45.928;20.078;2023-11-21T02:49:34;76.93;;;35.97;;
71166;SDS011;58864;45.928;20.078;2023-11-21T02:51:59;69.15;;;32.97;;
71166;SDS011;58864;45.928;20.078;2023-11-21T02:54:25;68.57;;;34.08;;
71166;SDS011;58864;45.928;20.078;2023-11-21T02:56:51;69.80;;;32.97;;
71166;SDS011;58864;45.928;20.078;2023-11-21T02:59:15;71.13;;;33.17;;
71166;SDS011;58864;45.928;20.078;2023-11-21T03:01:40;75.80;;;34.87;;
71166;SDS011;58864;45.928;20.078;2023-11-21T03:04:04;66.43;;;31.17;;
71166;SDS011;58864;45.928;20.078;2023-11-21T03:06:29;59.00;;;29.93;;
71166;SDS011;58864;45.928;20.078;2023-11-21T03:08:53;60.97;;;28.73;;
71166;SDS011;58864;45.928;20.078;2023-11-21T03:11:18;60.17;;;28.25;;
71166;SDS011;58864;45.928;20.078;2023-11-21T03:13:42;50.23;;;24.60;;
71166;SDS011;58864;45.928;20.078;2023-11-21T03:16:10;51.73;;;24.50;;
71166;SDS011;58864;45.928;20.078;2023-11-21T03:18:35;53.03;;;26.80;;
71166;SDS011;58864;45.928;20.078;2023-11-21T03:21:00;52.58;;;24.10;;
71166;SDS011;58864;45.928;20.078;2023-11-21T03:23:24;46.83;;;22.80;;
71166;SDS011;58864;45.928;20.078;2023-11-21T03:25:49;44.97;;;22.73;;
71166;SDS011;58864;45.928;20.078;2023-11-21T03:28:13;44.03;;;21.67;;
71166;SDS011;58864;45.928;20.078;2023-11-21T03:30:37;42.55;;;20.75;;
71166;SDS011;58864;45.928;20.078;2023-11-21T03:33:02;42.23;;;20.27;;
71166;SDS011;58864;45.928;20.078;2023-11-21T03:35:26;41.47;;;19.80;;
71166;SDS011;58864;45.928;20.078;2023-11-21T03:37:51;39.33;;;19.65;;
71166;SDS011;58864;45.928;20.078;2023-11-21T03:40:16;37.07;;;19.97;;
71166;SDS011;58864;45.928;20.078;2023-11-21T03:42:40;40.65;;;19.92;;
71166;SDS011;58864;45.928;20.078;2023-11-21T03:45:06;41.33;;;19.70;;
71166;SDS011;58864;45.928;20.078;2023-11-21T03:47:31;42.53;;;22.40;;
71166;SDS011;58864;45.928;20.078;2023-11-21T03:49:55;41.20;;;23.33;;
71166;SDS011;58864;45.928;20.078;2023-11-21T03:52:20;43.00;;;21.88;;
71166;SDS011;58864;45.928;20.078;2023-11-21T03:54:44;41.30;;;21.43;;
71166;SDS011;58864;45.928;20.078;2023-11-21T03:57:09;37.37;;;20.90;;
71166;SDS011;58864;45.928;20.078;2023-11-21T03:59:33;47.27;;;24.63;;
71166;SDS011;58864;45.928;20.078;2023-11-21T04:01:57;49.58;;;24.38;;
71166;SDS011;58864;45.928;20.078;2023-11-21T04:04:22;38.90;;;20.93;;
71166;SDS011;58864;45.928;20.078;2023-11-21T04:06:47;44.03;;;23.83;;
71166;SDS011;58864;45.928;20.078;2023-11-21T04:09:11;44.60;;;22.65;;
71166;SDS011;58864;45.928;20.078;2023-11-21T04:11:36;45.20;;;23.00;;
71166;SDS011;58864;45.928;20.078;2023-11-21T04:14:01;46.05;;;24.52;;
71166;SDS011;58864;45.928;20.078;2023-11-21T04:16:25;42.10;;;23.43;;
71166;SDS011;58864;45.928;20.078;2023-11-21T04:18:49;45.77;;;24.53;;
71166;SDS011;58864;45.928;20.078;2023-11-21T04:21:14;57.83;;;28.03;;
71166;SDS011;58864;45.928;20.078;2023-11-21T04:23:38;45.80;;;24.97;;
71166;SDS011;58864;45.928;20.078;2023-11-21T04:26:04;43.85;;;23.38;;
71166;SDS011;58864;45.928;20.078;2023-11-21T04:28:28;47.73;;;24.97;;
71166;SDS011;58864;45.928;20.078;2023-11-21T04:30:53;47.87;;;25.27;;
71166;SDS011;58864;45.928;20.078;2023-11-21T04:33:17;51.90;;;27.27;;
71166;SDS011;58864;45.928;20.078;2023-11-21T04:35:42;42.88;;;23.05;;
71166;SDS011;58864;45.928;20.078;2023-11-21T04:38:06;46.93;;;24.33;;
71166;SDS011;58864;45.928;20.078;2023-11-21T04:40:31;52.93;;;27.53;;
71166;SDS011;58864;45.928;20.078;2023-11-21T04:42:55;60.07;;;32.07;;
71166;SDS011;58864;45.928;20.078;2023-11-21T04:45:21;50.78;;;27.73;;
71166;SDS011;58864;45.928;20.078;2023-11-21T04:47:45;51.83;;;27.80;;
71166;SDS011;58864;45.928;20.078;2023-11-21T04:50:10;52.45;;;28.80;;
71166;SDS011;58864;45.928;20.078;2023-11-21T04:52:34;47.73;;;25.60;;
71166;SDS011;58864;45.928;20.078;2023-11-21T04:54:58;49.40;;;26.60;;
71166;SDS011;58864;45.928;20.078;2023-11-21T04:57:25;46.88;;;26.02;;
71166;SDS011;58864;45.928;20.078;2023-11-21T04:59:49;47.93;;;25.00;;
71166;SDS011;58864;45.928;20.078;2023-11-21T05:02:14;50.58;;;27.70;;
71166;SDS011;58864;45.928;20.078;2023-11-21T05:04:38;40.97;;;21.97;;
71166;SDS011;58864;45.928;20.078;2023-11-21T05:07:03;37.93;;;20.40;;
71166;SDS011;58864;45.928;20.078;2023-11-21T05:09:27;43.47;;;22.58;;
71166;SDS011;58864;45.928;20.078;2023-11-21T05:11:55;41.50;;;20.97;;
71166;SDS011;58864;45.928;20.078;2023-11-21T05:14:20;36.53;;;20.55;;
71166;SDS011;58864;45.928;20.078;2023-11-21T05:16:45;43.90;;;21.40;;
71166;SDS011;58864;45.928;20.078;2023-11-21T05:19:10;45.15;;;24.23;;
71166;SDS011;58864;45.928;20.078;2023-11-21T05:21:37;42.58;;;22.70;;
71166;SDS011;58864;45.928;20.078;2023-11-21T05:24:01;44.93;;;24.80;;
71166;SDS011;58864;45.928;20.078;2023-11-21T05:26:25;47.47;;;25.37;;
71166;SDS011;58864;45.928;20.078;2023-11-21T05:28:50;46.92;;;23.60;;
71166;SDS011;58864;45.928;20.078;2023-11-21T05:31:14;42.57;;;22.40;;
71166;SDS011;58864;45.928;20.078;2023-11-21T05:33:39;41.53;;;22.00;;
71166;SDS011;58864;45.928;20.078;2023-11-21T05:36:04;46.45;;;25.88;;
71166;SDS011;58864;45.928;20.078;2023-11-21T05:38:31;44.85;;;24.13;;
71166;SDS011;58864;45.928;20.078;2023-11-21T05:40:56;44.47;;;23.57;;
71166;SDS011;58864;45.928;20.078;2023-11-21T05:43:22;50.13;;;25.98;;
71166;SDS011;58864;45.928;20.078;2023-11-21T05:45:47;55.80;;;28.13;;
71166;SDS011;58864;45.928;20.078;2023-11-21T05:48:11;47.90;;;25.13;;
71166;SDS011;58864;45.928;20.078;2023-11-21T05:50:36;54.83;;;25.52;;
71166;SDS011;58864;45.928;20.078;2023-11-21T05:53:02;54.53;;;25.65;;
71166;SDS011;58864;45.928;20.078;2023-11-21T05:55:26;60.43;;;30.23;;
71166;SDS011;58864;45.928;20.078;2023-11-21T05:57:51;63.53;;;31.50;;
71166;SDS011;58864;45.928;20.078;2023-11-21T06:00:15;60.63;;;30.38;;
71166;SDS011;58864;45.928;20.078;2023-11-21T06:02:44;55.10;;;28.58;;
71166;SDS011;58864;45.928;20.078;2023-11-21T06:05:09;58.97;;;28.90;;
71166;SDS011;58864;45.928;20.078;2023-11-21T06:07:34;58.22;;;29.52;;
71166;SDS011;58864;45.928;20.078;2023-11-21T06:09:59;57.13;;;27.77;;
71166;SDS011;58864;45.928;20.078;2023-11-21T06:12:23;60.73;;;29.80;;
71166;SDS011;58864;45.928;20.078;2023-11-21T06:14:48;57.07;;;28.73;;
71166;SDS011;58864;45.928;20.078;2023-11-21T06:17:13;59.22;;;29.30;;
71166;SDS011;58864;45.928;20.078;2023-11-21T06:19:38;52.95;;;27.23;;
71166;SDS011;58864;45.928;20.078;2023-11-21T06:22:02;48.90;;;25.70;;
71166;SDS011;58864;45.928;20.078;2023-11-21T06:24:27;45.47;;;23.80;;
71166;SDS011;58864;45.928;20.078;2023-11-21T06:26:52;48.13;;;24.88;;
71166;SDS011;58864;45.928;20.078;2023-11-21T06:29:16;55.10;;;27.27;;
71166;SDS011;58864;45.928;20.078;2023-11-21T06:31:41;53.25;;;26.55;;
71166;SDS011;58864;45.928;20.078;2023-11-21T06:34:05;46.37;;;24.90;;
71166;SDS011;58864;45.928;20.078;2023-11-21T06:36:30;46.80;;;26.60;;
71166;SDS011;58864;45.928;20.078;2023-11-21T06:38:55;49.87;;;25.07;;
71166;SDS011;58864;45.928;20.078;2023-11-21T06:41:20;50.58;;;26.70;;
71166;SDS011;58864;45.928;20.078;2023-11-21T06:43:44;43.97;;;23.97;;
71166;SDS011;58864;45.928;20.078;2023-11-21T06:46:10;44.00;;;23.80;;
71166;SDS011;58864;45.928;20.078;2023-11-21T06:48:35;41.55;;;23.52;;
71166;SDS011;58864;45.928;20.078;2023-11-21T06:51:02;38.83;;;21.50;;
71166;SDS011;58864;45.928;20.078;2023-11-21T06:53:27;39.63;;;20.63;;
71166;SDS011;58864;45.928;20.078;2023-11-21T06:55:51;37.73;;;19.73;;
71166;SDS011;58864;45.928;20.078;2023-11-21T06:58:16;35.95;;;19.02;;
71166;SDS011;58864;45.928;20.078;2023-11-21T07:00:40;42.63;;;21.17;;
71166;SDS011;58864;45.928;20.078;2023-11-21T07:03:05;36.50;;;18.65;;
71166;SDS011;58864;45.928;20.078;2023-11-21T07:05:29;41.77;;;21.33;;
71166;SDS011;58864;45.928;20.078;2023-11-21T07:07:54;42.88;;;21.63;;
71166;SDS011;58864;45.928;20.078;2023-11-21T07:10:19;43.83;;;19.90;;
71166;SDS011;58864;45.928;20.078;2023-11-21T07:12:43;34.00;;;18.73;;
71166;SDS011;58864;45.928;20.078;2023-11-21T07:15:08;31.58;;;17.10;;
71166;SDS011;58864;45.928;20.078;2023-11-21T07:17:33;30.27;;;16.48;;
71166;SDS011;58864;45.928;20.078;2023-11-21T07:19:59;44.20;;;21.30;;
71166;SDS011;58864;45.928;20.078;2023-11-21T07:22:23;47.20;;;23.52;;
71166;SDS011;58864;45.928;20.078;2023-11-21T07:24:49;43.67;;;23.00;;
71166;SDS011;58864;45.928;20.078;2023-11-21T07:27:16;40.80;;;21.33;;
71166;SDS011;58864;45.928;20.078;2023-11-21T07:29:41;38.33;;;20.42;;
71166;SDS011;58864;45.928;20.078;2023-11-21T07:32:05;41.47;;;20.90;;
71166;SDS011;58864;45.928;20.078;2023-11-21T07:34:30;53.23;;;26.30;;
71166;SDS011;58864;45.928;20.078;2023-11-21T07:36:54;48.92;;;26.05;;
71166;SDS011;58864;45.928;20.078;2023-11-21T07:39:19;52.43;;;26.23;;
71166;SDS011;58864;45.928;20.078;2023-11-21T07:41:43;52.70;;;28.73;;
71166;SDS011;58864;45.928;20.078;2023-11-21T07:44:12;56.03;;;27.83;;
71166;SDS011;58864;45.928;20.078;2023-11-21T07:46:36;53.53;;;28.93;;
71166;SDS011;58864;45.928;20.078;2023-11-21T07:49:01;57.50;;;29.42;;
71166;SDS011;58864;45.928;20.078;2023-11-21T07:51:25;54.33;;;28.80;;
71166;SDS011;58864;45.928;20.078;2023-11-21T07:53:49;53.23;;;27.03;;
71166;SDS011;58864;45.928;20.078;2023-11-21T07:56:14;53.37;;;27.63;;
71166;SDS011;58864;45.928;20.078;2023-11-21T07:58:38;55.10;;;28.13;;
71166;SDS011;58864;45.928;20.078;2023-11-21T08:01:03;61.27;;;31.90;;
71166;SDS011;58864;45.928;20.078;2023-11-21T08:03:28;66.27;;;32.47;;
71166;SDS011;58864;45.928;20.078;2023-11-21T08:05:54;58.83;;;30.77;;
71166;SDS011;58864;45.928;20.078;2023-11-21T08:08:18;56.38;;;28.95;;
71166;SDS011;58864;45.928;20.078;2023-11-21T08:10:43;57.03;;;28.03;;
71166;SDS011;58864;45.928;20.078;2023-11-21T08:13:10;57.92;;;27.63;;
71166;SDS011;58864;45.928;20.078;2023-11-21T08:15:38;55.47;;;26.77;;
71166;SDS011;58864;45.928;20.078;2023-11-21T08:18:03;55.83;;;28.27;;
71166;SDS011;58864;45.928;20.078;2023-11-21T08:20:27;54.27;;;27.93;;
71166;SDS011;58864;45.928;20.078;2023-11-21T08:22:52;55.10;;;28.63;;
71166;SDS011;58864;45.928;20.078;2023-11-21T08:25:17;51.90;;;28.17;;
71166;SDS011;58864;45.928;20.078;2023-11-21T08:27:43;52.13;;;27.50;;
71166;SDS011;58864;45.928;20.078;2023-11-21T08:30:08;54.57;;;27.60;;
71166;SDS011;58864;45.928;20.078;2023-11-21T08:32:33;55.25;;;27.88;;
71166;SDS011;58864;45.928;20.078;2023-11-21T08:34:57;47.60;;;25.37;;
71166;SDS011;58864;45.928;20.078;2023-11-21T08:37:22;51.22;;;26.67;;
71166;SDS011;58864;45.928;20.078;2023-11-21T08:39:47;59.97;;;29.77;;
71166;SDS011;58864;45.928;20.078;2023-11-21T08:42:16;51.22;;;27.63;;
71166;SDS011;58864;45.928;20.078;2023-11-21T08:44:42;51.63;;;25.90;;
71166;SDS011;58864;45.928;20.078;2023-11-21T08:47:06;44.27;;;24.60;;
71166;SDS011;58864;45.928;20.078;2023-11-21T08:49:31;47.10;;;23.95;;
71166;SDS011;58864;45.928;20.078;2023-11-21T08:51:55;44.93;;;22.87;;
71166;SDS011;58864;45.928;20.078;2023-11-21T08:54:19;45.17;;;24.97;;
71166;SDS011;58864;45.928;20.078;2023-11-21T08:56:45;46.70;;;24.88;;
71166;SDS011;58864;45.928;20.078;2023-11-21T08:59:10;50.95;;;24.45;;
71166;SDS011;58864;45.928;20.078;2023-11-21T09:01:34;45.70;;;24.73;;
71166;SDS011;58864;45.928;20.078;2023-11-21T09:03:59;46.87;;;23.10;;
71166;SDS011;58864;45.928;20.078;2023-11-21T09:06:24;47.93;;;23.53;;
71166;SDS011;58864;45.928;20.078;2023-11-21T09:08:48;41.70;;;21.98;;
71166;SDS011;58864;45.928;20.078;2023-11-21T09:11:13;46.50;;;22.80;;
71166;SDS011;58864;45.928;20.078;2023-11-21T09:13:37;44.05;;;22.67;;
71166;SDS011;58864;45.928;20.078;2023-11-21T09:16:02;39.73;;;21.07;;
71166;SDS011;58864;45.928;20.078;2023-11-21T09:18:26;37.67;;;18.40;;
71166;SDS011;58864;45.928;20.078;2023-11-21T09:20:51;34.77;;;19.10;;
71166;SDS011;58864;45.928;20.078;2023-11-21T09:23:15;32.73;;;16.50;;
71166;SDS011;58864;45.928;20.078;2023-11-21T09:25:40;31.53;;;15.70;;
71166;SDS011;58864;45.928;20.078;2023-11-21T09:28:05;31.60;;;15.93;;
71166;SDS011;58864;45.928;20.078;2023-11-21T09:30:34;29.13;;;15.55;;
71166;SDS011;58864;45.928;20.078;2023-11-21T09:32:59;41.60;;;21.80;;
71166;SDS011;58864;45.928;20.078;2023-11-21T09:35:24;35.42;;;20.50;;
71166;SDS011;58864;45.928;20.078;2023-11-21T09:37:49;39.07;;;19.97;;
71166;SDS011;58864;45.928;20.078;2023-11-21T09:40:14;36.30;;;18.70;;
71166;SDS011;58864;45.928;20.078;2023-11-21T09:42:56;43.03;;;19.10;;
71166;SDS011;58864;45.928;20.078;2023-11-21T09:45:24;26.27;;;13.05;;
71166;SDS011;58864;45.928;20.078;2023-11-21T09:47:53;26.25;;;13.40;;
71166;SDS011;58864;45.928;20.078;2023-11-21T09:50:21;31.07;;;14.10;;
71166;SDS011;58864;45.928;20.078;2023-11-21T09:55:30;29.30;;;16.50;;
71166;SDS011;58864;45.928;20.078;2023-11-21T09:58:00;37.97;;;21.45;;
71166;SDS011;58864;45.928;20.078;2023-11-21T10:00:25;44.00;;;25.30;;
71166;SDS011;58864;45.928;20.078;2023-11-21T10:02:52;38.17;;;22.25;;
71166;SDS011;58864;45.928;20.078;2023-11-21T10:05:17;34.70;;;18.95;;
71166;SDS011;58864;45.928;20.078;2023-11-21T10:07:41;32.93;;;17.20;;
71166;SDS011;58864;45.928;20.078;2023-11-21T10:10:08;34.17;;;17.73;;
71166;SDS011;58864;45.928;20.078;2023-11-21T10:12:33;34.70;;;18.13;;
71166;SDS011;58864;45.928;20.078;2023-11-21T10:14:57;32.25;;;15.73;;
71166;SDS011;58864;45.928;20.078;2023-11-21T10:17:24;28.90;;;14.67;;
71166;SDS011;58864;45.928;20.078;2023-11-21T10:19:55;30.40;;;15.48;;
71166;SDS011;58864;45.928;20.078;2023-11-21T10:22:21;33.17;;;16.30;;
71166;SDS011;58864;45.928;20.078;2023-11-21T10:24:46;32.53;;;16.10;;
71166;SDS011;58864;45.928;20.078;2023-11-21T10:27:10;34.17;;;17.05;;
71166;SDS011;58864;45.928;20.078;2023-11-21T10:29:35;31.67;;;15.90;;
71166;SDS011;58864;45.928;20.078;2023-11-21T10:31:59;37.77;;;18.10;;
71166;SDS011;58864;45.928;20.078;2023-11-21T10:34:24;36.03;;;16.88;;
71166;SDS011;58864;45.928;20.078;2023-11-21T10:36:48;38.20;;;18.23;;
71166;SDS011;58864;45.928;20.078;2023-11-21T10:39:14;50.83;;;21.43;;
71166;SDS011;58864;45.928;20.078;2023-11-21T10:41:43;41.42;;;19.48;;
71166;SDS011;58864;45.928;20.078;2023-11-21T10:44:20;35.38;;;17.58;;
71166;SDS011;58864;45.928;20.078;2023-11-21T10:46:45;41.50;;;18.98;;
71166;SDS011;58864;45.928;20.078;2023-11-21T10:49:14;34.28;;;16.95;;
71166;SDS011;58864;45.928;20.078;2023-11-21T10:51:39;35.17;;;17.63;;
71166;SDS011;58864;45.928;20.078;2023-11-21T10:54:08;38.05;;;18.30;;
71166;SDS011;58864;45.928;20.078;2023-11-21T10:56:32;42.43;;;18.73;;
71166;SDS011;58864;45.928;20.078;2023-11-21T10:58:59;49.38;;;21.33;;
71166;SDS011;58864;45.928;20.078;2023-11-21T11:01:23;47.97;;;22.00;;
71166;SDS011;58864;45.928;20.078;2023-11-21T11:03:50;42.88;;;20.35;;
71166;SDS011;58864;45.928;20.078;2023-11-21T11:06:15;41.15;;;19.45;;
71166;SDS011;58864;45.928;20.078;2023-11-21T11:08:40;36.80;;;18.00;;
71166;SDS011;58864;45.928;20.078;2023-11-21T11:11:05;44.87;;;20.47;;
71166;SDS011;58864;45.928;20.078;2023-11-21T11:13:30;46.17;;;20.05;;
71166;SDS011;58864;45.928;20.078;2023-11-21T11:15:57;42.13;;;19.08;;
71166;SDS011;58864;45.928;20.078;2023-11-21T11:18:26;58.40;;;24.57;;
71166;SDS011;58864;45.928;20.078;2023-11-21T11:20:50;48.30;;;24.85;;
71166;SDS011;58864;45.928;20.078;2023-11-21T11:28:37;32.92;;;17.17;;
71166;SDS011;58864;45.928;20.078;2023-11-21T11:31:14;39.63;;;21.35;;
71166;SDS011;58864;45.928;20.078;2023-11-21T11:33:50;33.70;;;18.42;;
71166;SDS011;58864;45.928;20.078;2023-11-21T11:36:51;28.47;;;14.87;;
71166;SDS011;58864;45.928;20.078;2023-11-21T11:39:27;32.50;;;16.15;;
71166;SDS011;58864;45.928;20.078;2023-11-21T11:41:52;28.40;;;14.98;;
71166;SDS011;58864;45.928;20.078;2023-11-21T11:47:13;32.13;;;16.23;;
71166;SDS011;58864;45.928;20.078;2023-11-21T11:52:34;34.30;;;16.95;;
71166;SDS011;58864;45.928;20.078;2023-11-21T11:55:00;31.67;;;16.95;;
71166;SDS011;58864;45.928;20.078;2023-11-21T11:57:24;30.48;;;16.42;;
71166;SDS011;58864;45.928;20.078;2023-11-21T12:00:11;30.20;;;15.68;;
71166;SDS011;58864;45.928;20.078;2023-11-21T12:02:36;31.10;;;17.40;;
71166;SDS011;58864;45.928;20.078;2023-11-21T12:05:01;26.13;;;14.00;;
71166;SDS011;58864;45.928;20.078;2023-11-21T12:07:50;28.83;;;15.15;;
71166;SDS011;58864;45.928;20.078;2023-11-21T12:10:18;30.63;;;15.35;;
71166;SDS011;58864;45.928;20.078;2023-11-21T12:12:45;28.85;;;15.68;;
71166;SDS011;58864;45.928;20.078;2023-11-21T12:15:10;33.80;;;15.87;;
71166;SDS011;58864;45.928;20.078;2023-11-21T12:17:35;27.70;;;15.93;;
71166;SDS011;58864;45.928;20.078;2023-11-21T12:20:03;37.97;;;19.30;;
71166;SDS011;58864;45.928;20.078;2023-11-21T12:22:29;36.53;;;18.88;;
71166;SDS011;58864;45.928;20.078;2023-11-21T12:24:54;29.23;;;15.60;;
71166;SDS011;58864;45.928;20.078;2023-11-21T12:27:20;33.07;;;16.53;;
71166;SDS011;58864;45.928;20.078;2023-11-21T12:29:45;31.98;;;15.98;;
71166;SDS011;58864;45.928;20.078;2023-11-21T12:32:09;36.27;;;17.80;;
71166;SDS011;58864;45.928;20.078;2023-11-21T12:34:34;35.35;;;17.30;;
71166;SDS011;58864;45.928;20.078;2023-11-21T12:36:59;36.60;;;17.83;;
71166;SDS011;58864;45.928;20.078;2023-11-21T12:39:23;31.17;;;16.60;;
71166;SDS011;58864;45.928;20.078;2023-11-21T12:41:48;27.83;;;15.50;;
71166;SDS011;58864;45.928;20.078;2023-11-21T12:44:12;28.73;;;13.43;;
71166;SDS011;58864;45.928;20.078;2023-11-21T12:46:41;33.60;;;15.70;;
71166;SDS011;58864;45.928;20.078;2023-11-21T12:49:06;30.15;;;15.88;;
71166;SDS011;58864;45.928;20.078;2023-11-21T12:51:31;31.60;;;14.57;;
71166;SDS011;58864;45.928;20.078;2023-11-21T12:53:56;33.43;;;16.73;;
71166;SDS011;58864;45.928;20.078;2023-11-21T12:56:21;31.77;;;16.63;;
71166;SDS011;58864;45.928;20.078;2023-11-21T12:58:47;31.87;;;16.07;;
71166;SDS011;58864;45.928;20.078;2023-11-21T13:01:12;32.22;;;15.48;;
71166;SDS011;58864;45.928;20.078;2023-11-21T13:03:41;26.67;;;14.27;;
71166;SDS011;58864;45.928;20.078;2023-11-21T13:06:09;27.70;;;13.77;;
71166;SDS011;58864;45.928;20.078;2023-11-21T13:08:33;38.57;;;16.07;;
71166;SDS011;58864;45.928;20.078;2023-11-21T13:10:58;84.97;;;28.40;;
71166;SDS011;58864;45.928;20.078;2023-11-21T13:13:23;54.13;;;22.17;;
71166;SDS011;58864;45.928;20.078;2023-11-21T13:15:52;34.00;;;16.23;;
71166;SDS011;58864;45.928;20.078;2023-11-21T13:18:20;33.45;;;16.42;;
71166;SDS011;58864;45.928;20.078;2023-11-21T13:20:45;28.37;;;14.50;;
71166;SDS011;58864;45.928;20.078;2023-11-21T13:23:10;32.40;;;14.32;;
71166;SDS011;58864;45.928;20.078;2023-11-21T13:25:36;28.52;;;14.48;;
71166;SDS011;58864;45.928;20.078;2023-11-21T13:28:01;38.80;;;20.58;;
71166;SDS011;58864;45.928;20.078;2023-11-21T13:30:26;36.53;;;18.47;;
71166;SDS011;58864;45.928;20.078;2023-11-21T13:32:51;43.22;;;21.05;;
71166;SDS011;58864;45.928;20.078;2023-11-21T13:35:20;44.22;;;20.02;;
71166;SDS011;58864;45.928;20.078;2023-11-21T13:37:44;37.53;;;18.85;;
71166;SDS011;58864;45.928;20.078;2023-11-21T13:40:09;49.75;;;24.08;;
71166;SDS011;58864;45.928;20.078;2023-11-21T13:42:38;40.37;;;23.50;;
71166;SDS011;58864;45.928;20.078;2023-11-21T13:45:03;39.28;;;21.83;;
71166;SDS011;58864;45.928;20.078;2023-11-21T13:47:29;31.40;;;17.73;;
71166;SDS011;58864;45.928;20.078;2023-11-21T13:49:55;31.70;;;18.27;;
71166;SDS011;58864;45.928;20.078;2023-11-21T13:52:19;27.35;;;14.93;;
71166;SDS011;58864;45.928;20.078;2023-11-21T13:54:46;26.03;;;12.93;;
71166;SDS011;58864;45.928;20.078;2023-11-21T13:57:11;22.75;;;12.23;;
71166;SDS011;58864;45.928;20.078;2023-11-21T13:59:36;31.37;;;16.73;;
71166;SDS011;58864;45.928;20.078;2023-11-21T14:02:00;36.83;;;17.95;;
71166;SDS011;58864;45.928;20.078;2023-11-21T14:04:40;33.65;;;17.55;;
71166;SDS011;58864;45.928;20.078;2023-11-21T14:07:18;42.60;;;20.00;;
71166;SDS011;58864;45.928;20.078;2023-11-21T14:10:03;48.28;;;22.17;;
71166;SDS011;58864;45.928;20.078;2023-11-21T14:12:31;31.02;;;16.45;;
71166;SDS011;58864;45.928;20.078;2023-11-21T14:14:58;37.78;;;17.83;;
71166;SDS011;58864;45.928;20.078;2023-11-21T14:17:23;49.97;;;25.50;;
71166;SDS011;58864;45.928;20.078;2023-11-21T14:19:49;38.28;;;20.00;;
71166;SDS011;58864;45.928;20.078;2023-11-21T14:22:14;40.85;;;20.55;;
71166;SDS011;58864;45.928;20.078;2023-11-21T14:24:39;32.30;;;16.53;;
71166;SDS011;58864;45.928;20.078;2023-11-21T14:27:10;48.03;;;29.45;;
71166;SDS011;58864;45.928;20.078;2023-11-21T14:29:35;40.33;;;22.00;;
71166;SDS011;58864;45.928;20.078;2023-11-21T14:32:06;28.45;;;14.77;;
71166;SDS011;58864;45.928;20.078;2023-11-21T14:34:31;29.85;;;15.73;;
71166;SDS011;58864;45.928;20.078;2023-11-21T14:36:56;34.07;;;21.20;;
71166;SDS011;58864;45.928;20.078;2023-11-21T14:39:20;30.70;;;15.88;;
71166;SDS011;58864;45.928;20.078;2023-11-21T14:41:51;28.63;;;14.90;;
71166;SDS011;58864;45.928;20.078;2023-11-21T14:44:16;28.08;;;14.80;;
71166;SDS011;58864;45.928;20.078;2023-11-21T14:46:41;25.92;;;14.35;;
71166;SDS011;58864;45.928;20.078;2023-11-21T14:49:10;26.07;;;14.70;;
71166;SDS011;58864;45.928;20.078;2023-11-21T14:51:45;29.67;;;16.75;;
71166;SDS011;58864;45.928;20.078;2023-11-21T14:54:31;32.83;;;16.45;;
71166;SDS011;58864;45.928;20.078;2023-11-21T14:57:07;34.70;;;16.27;;
71166;SDS011;58864;45.928;20.078;2023-11-21T14:59:35;31.77;;;16.33;;
71166;SDS011;58864;45.928;20.078;2023-11-21T15:01:59;25.40;;;13.30;;
71166;SDS011;58864;45.928;20.078;2023-11-21T15:04:38;29.77;;;16.15;;
71166;SDS011;58864;45.928;20.078;2023-11-21T15:07:03;28.57;;;14.93;;
71166;SDS011;58864;45.928;20.078;2023-11-21T15:09:28;206.90;;;68.85;;
71166;SDS011;58864;45.928;20.078;2023-11-21T15:11:55;37.58;;;16.95;;
71166;SDS011;58864;45.928;20.078;2023-11-21T15:14:26;30.45;;;13.48;;
71166;SDS011;58864;45.928;20.078;2023-11-21T15:16:55;31.05;;;13.73;;
71166;SDS011;58864;45.928;20.078;2023-11-21T15:19:23;30.80;;;13.60;;
71166;SDS011;58864;45.928;20.078;2023-11-21T15:21:50;27.05;;;11.65;;
71166;SDS011;58864;45.928;20.078;2023-11-21T15:24:14;27.63;;;12.17;;
71166;SDS011;58864;45.928;20.078;2023-11-21T15:26:39;23.65;;;12.02;;
71166;SDS011;58864;45.928;20.078;2023-11-21T15:29:03;32.97;;;16.63;;
71166;SDS011;58864;45.928;20.078;2023-11-21T15:31:28;40.23;;;18.93;;
71166;SDS011;58864;45.928;20.078;2023-11-21T15:33:52;26.80;;;13.60;;
71166;SDS011;58864;45.928;20.078;2023-11-21T15:36:23;33.15;;;17.02;;
71166;SDS011;58864;45.928;20.078;2023-11-21T15:38:48;27.65;;;15.90;;